Eppley Airfield
KOMA : now visible

Airfield :











YOU CAN JOIN US ON...

 
LOGIN :

Register | Disclaimer

   EN    FR    IT 

 









Legend :    VFR   Marginal VFR   IFR   Intensive IFR   Very Intensive IFR
Visi :
Ceiling :
>= 8 km
>= 3000ft
5 to 8 km
1000 to 3000 ft
1500m to 5 km
500 to 1000 ft
800 to 1500m
200 to 500 ft
< 800m
< 200 ft
Symbols :   Thunderstorms  Fog  Heavy snow  Heavy precipitations  Wind > 20 kt






- Airport Elevation : 984 ft
- IATA code : OMA


KOMA - Eppley

CURRENT METAR :
  • 171852Z 11008KT 10SM BKN013 OVC030 18/16 A3000 RMK AO2 SLP157 T01830161

EXPIRED METARs :
  • 171752Z 10008KT 10SM OVC013 18/16 A3000 RMK AO2 SLP157 60000 T01780161 10178 20150 50001
  • 171659Z 11007KT 6SM BR OVC011 17/16 A3001 RMK AO2 CIG 007V013 T01720161
  • 171652Z 11008KT 6SM BR BKN009 OVC013 17/16 A3001 RMK AO2 RAE08 CIG 007V011 SLP159 P0000 T01720161

TAF KOMA
Valid from the 17 at 18:00 until the 18 at 18:00 UTC


171806Z 1718/1818 09009KT P6SM OVC015
FM172000 08010KT P6SM VCSH BKN020
TEMPO 1720/1724 4SM -SHRA OVC015
FM180100 08008KT P6SM OVC020
FM180300 08006KT P6SM OVC008
FM181000 09004KT 3SM BR OVC004
FM181600 08007KT P6SM BKN008
KZMP FIR / North America



MET'MAP, your aeronautical weather chart ! - Copyright ORBIFLY December 2007 - Disclaimer

ORBIFLY MET'MAP TEAM :

Programming & Development : Alexandra Zaïnal
Concept & original design : Baudouin d'Aumeries
Assistance for programming : Marc-Olivier Méhu
Technical & hardware support : Manuel Goepfert

Contact : metmap@orbifly.com




SOURCES & CREDITS :

   NOAA       Earth
Advisory